Time;durP1;ratioP1;P1;durP2;ratioP2;P2;SDS_P1;SDS_P2;PMS_P1;PMS_P2;Temp;Humidity;BMP_temperature;BMP_pressure;BME280_temperature;BME280_humidity;BME280_pressure;Samples;Min_cycle;Max_cycle;Signal;HPM_P1;HPM_P2
2022/02/12 00:00:13;;;;;;;5.97;4.38;;;0.50;99.90;;;;;;4896116;29;20810;-82
2022/02/12 00:02:39;;;;;;;6.97;4.93;;;0.30;99.90;;;;;;4911503;29;20188;-83
2022/02/12 00:05:06;;;;;;;10.63;5.10;;;0.20;99.90;;;;;;4926068;29;20857;-83
2022/02/12 00:07:32;;;;;;;5.82;4.80;;;0.20;99.90;;;;;;4912241;29;20518;-84
2022/02/12 00:09:57;;;;;;;7.40;4.90;;;0.30;99.90;;;;;;4924643;29;20192;-84
2022/02/12 00:12:23;;;;;;;7.60;5.67;;;0.30;99.90;;;;;;4911425;29;20288;-84
2022/02/12 00:14:49;;;;;;;7.30;5.30;;;0.00;99.90;;;;;;4919802;29;20219;-85
2022/02/12 00:17:15;;;;;;;9.60;5.37;;;0.10;99.90;;;;;;4911380;29;20425;-84
2022/02/12 00:19:40;;;;;;;7.60;4.40;;;0.30;99.90;;;;;;4927463;29;20465;-85
2022/02/12 00:22:06;;;;;;;8.27;5.70;;;0.20;99.90;;;;;;4929650;29;20603;-83
2022/02/12 00:24:31;;;;;;;13.97;5.60;;;0.20;99.90;;;;;;4913887;29;20568;-84
2022/02/12 00:26:57;;;;;;;13.43;4.00;;;-0.10;99.90;;;;;;4930445;29;20171;-83
2022/02/12 00:29:22;;;;;;;11.67;5.63;;;-0.30;99.90;;;;;;4894886;29;20187;-83
2022/02/12 00:31:48;;;;;;;10.47;5.67;;;0.00;99.90;;;;;;4930419;29;20222;-83
2022/02/12 00:34:14;;;;;;;12.50;4.73;;;0.00;99.90;;;;;;4911153;29;20204;-83
2022/02/12 00:36:39;;;;;;;9.43;4.50;;;0.10;99.90;;;;;;4930091;29;20179;-84
2022/02/12 00:39:05;;;;;;;8.43;5.37;;;-0.10;99.90;;;;;;4901312;29;20655;-83
2022/02/12 00:41:31;;;;;;;11.73;4.60;;;-0.10;99.90;;;;;;4929640;29;20183;-83
2022/02/12 00:43:57;;;;;;;7.38;4.60;;;-0.10;99.90;;;;;;4892471;29;20467;-83
2022/02/12 00:46:23;;;;;;;11.70;4.73;;;-0.30;99.90;;;;;;4915119;29;20200;-83
2022/02/12 00:48:48;;;;;;;9.90;5.73;;;-0.10;99.90;;;;;;4928977;29;20191;-83
2022/02/12 00:51:14;;;;;;;14.67;5.87;;;-0.40;99.90;;;;;;4896966;29;20533;-83
2022/02/12 00:53:40;;;;;;;12.23;5.50;;;-0.10;99.90;;;;;;4918006;29;20335;-83
2022/02/12 00:56:07;;;;;;;12.07;4.80;;;-0.20;99.90;;;;;;4914355;29;20234;-83
2022/02/12 00:58:32;;;;;;;14.43;5.80;;;-0.10;99.90;;;;;;4897381;29;20568;-83
2022/02/12 01:00:58;;;;;;;6.50;4.97;;;-0.40;99.90;;;;;;4918437;29;20283;-83
2022/02/12 01:03:23;;;;;;;6.97;4.53;;;-0.30;99.90;;;;;;4914987;29;20275;-84
2022/02/12 01:05:49;;;;;;;11.07;5.40;;;-0.40;99.90;;;;;;4912969;29;20584;-84
2022/02/12 01:08:15;;;;;;;5.60;4.57;;;-0.30;99.90;;;;;;4910115;29;20719;-84
2022/02/12 01:10:41;;;;;;;6.10;5.03;;;0.70;99.90;;;;;;4902067;29;20208;-83
2022/02/12 01:13:07;;;;;;;8.60;4.70;;;-0.10;99.90;;;;;;4914320;29;20357;-83
2022/02/12 01:15:33;;;;;;;6.20;4.90;;;0.70;99.90;;;;;;4916930;29;20227;-83
2022/02/12 01:17:59;;;;;;;6.47;4.80;;;-0.50;99.90;;;;;;4911854;29;20435;-85
2022/02/12 01:20:25;;;;;;;10.48;5.10;;;0.20;99.90;;;;;;4915971;29;20489;-82
2022/02/12 01:22:50;;;;;;;5.83;5.17;;;-0.30;99.90;;;;;;4911037;29;20605;-82
2022/02/12 01:25:16;;;;;;;10.03;4.43;;;-0.50;99.90;;;;;;4917987;29;20748;-83
2022/02/12 01:27:42;;;;;;;4.20;3.77;;;-0.40;99.90;;;;;;4898016;29;20729;-83
2022/02/12 01:30:08;;;;;;;6.07;5.23;;;-0.50;99.90;;;;;;4926216;29;20447;-84
2022/02/12 01:32:35;;;;;;;7.07;6.38;;;-0.40;99.90;;;;;;4920055;29;20442;-83
2022/02/12 01:35:01;;;;;;;8.98;5.20;;;-0.80;99.90;;;;;;4910313;29;20880;-83
2022/02/12 01:37:27;;;;;;;11.03;6.83;;;-0.50;99.90;;;;;;4911285;29;20279;-83
2022/02/12 01:39:52;;;;;;;6.50;4.47;;;-0.40;99.90;;;;;;4901716;29;20459;-83
2022/02/12 01:42:19;;;;;;;7.13;4.70;;;-0.70;99.90;;;;;;4909930;29;20503;-82
2022/02/12 01:44:45;;;;;;;5.88;4.72;;;-0.40;99.90;;;;;;4892013;29;20309;-82
2022/02/12 01:47:11;;;;;;;10.48;5.18;;;-0.80;99.90;;;;;;4893017;29;20420;-81
2022/02/12 01:49:40;;;;;;;5.05;4.38;;;-0.50;99.90;;;;;;4925771;29;20749;-83
2022/02/12 01:52:10;;;;;;;5.10;4.70;;;-0.70;99.90;;;;;;4905522;29;20191;-83
2022/02/12 01:54:36;;;;;;;6.85;5.63;;;-0.50;99.90;;;;;;4917184;29;20219;-82
2022/02/12 01:57:03;;;;;;;12.73;5.53;;;-0.50;99.90;;;;;;4910146;29;20187;-82
2022/02/12 01:59:41;;;;;;;11.43;5.50;;;-0.50;99.90;;;;;;4896853;29;20202;-82
2022/02/12 02:02:08;;;;;;;8.75;5.47;;;-0.50;99.90;;;;;;4916814;29;20183;-83
2022/02/12 02:04:35;;;;;;;6.70;5.97;;;-0.40;99.90;;;;;;4898709;29;20273;-82
2022/02/12 02:07:00;;;;;;;9.90;5.88;;;-0.60;99.90;;;;;;4912084;29;20328;-82
2022/02/12 02:09:30;;;;;;;6.67;5.83;;;1.40;99.90;;;;;;4925673;29;20715;-82
2022/02/12 02:11:56;;;;;;;11.80;5.30;;;-0.30;99.90;;;;;;4892965;29;20172;-83
2022/02/12 02:14:33;;;;;;;8.35;5.20;;;-0.90;99.90;;;;;;4915038;29;20199;-82
2022/02/12 02:16:59;;;;;;;7.20;4.85;;;-0.20;99.90;;;;;;4912126;29;20637;-83
2022/02/12 02:19:25;;;;;;;8.75;5.68;;;0.10;99.90;;;;;;4915522;29;20725;-82
2022/02/12 02:21:55;;;;;;;7.60;5.00;;;-0.50;99.90;;;;;;4931081;29;20223;-82
2022/02/12 02:24:21;;;;;;;12.70;5.03;;;-0.40;99.90;;;;;;4907169;29;20752;-83
2022/02/12 02:26:47;;;;;;;5.65;5.20;;;-0.40;99.90;;;;;;4915412;29;20195;-83
2022/02/12 02:29:12;;;;;;;10.20;5.13;;;-0.40;99.90;;;;;;4912494;29;20530;-84
2022/02/12 02:31:38;;;;;;;7.97;4.90;;;-0.30;99.90;;;;;;4936488;29;20235;-84
2022/02/12 02:34:12;;;;;;;17.83;5.97;;;-0.30;99.90;;;;;;4918486;29;20436;-83
2022/02/12 02:36:38;;;;;;;9.50;4.90;;;-0.40;99.90;;;;;;4924103;29;20184;-84
2022/02/12 02:39:05;;;;;;;7.00;5.00;;;1.20;99.90;;;;;;4922079;29;20218;-84
2022/02/12 02:41:32;;;;;;;6.90;5.20;;;-0.50;99.90;;;;;;4918728;29;20179;-83
2022/02/12 02:44:29;;;;;;;9.18;5.32;;;-0.60;99.90;;;;;;4915525;29;20215;-84
2022/02/12 02:46:54;;;;;;;10.20;5.35;;;-0.20;99.90;;;;;;4895737;29;20680;-84
2022/02/12 02:49:20;;;;;;;8.37;5.97;;;-0.60;99.90;;;;;;4915945;29;20203;-82
2022/02/12 02:57:14;;;;;;;9.68;5.35;;;-0.20;99.90;;;;;;4917528;29;20195;-84
2022/02/12 02:59:39;;;;;;;6.60;5.97;;;-0.40;99.90;;;;;;4908469;29;20669;-84
2022/02/12 03:02:05;;;;;;;10.60;6.47;;;-0.30;99.90;;;;;;4915596;29;20216;-85
2022/02/12 03:04:31;;;;;;;15.57;6.03;;;-0.40;99.90;;;;;;4922905;29;20688;-83
2022/02/12 03:06:57;;;;;;;13.83;6.50;;;-0.30;99.90;;;;;;4898448;29;20187;-84
2022/02/12 03:09:23;;;;;;;13.00;5.03;;;-0.40;99.90;;;;;;4921467;29;20418;-83
2022/02/12 03:11:49;;;;;;;14.03;6.93;;;-0.60;99.90;;;;;;4914895;29;20548;-83
2022/02/12 03:14:14;;;;;;;9.35;6.05;;;-0.40;99.90;;;;;;4901865;29;20239;-83
2022/02/12 03:16:40;;;;;;;9.60;6.77;;;-0.50;99.90;;;;;;4913917;29;20593;-83
2022/02/12 03:19:06;;;;;;;12.73;6.60;;;-0.60;99.90;;;;;;4918235;29;20279;-83
2022/02/12 03:21:34;;;;;;;5.80;5.27;;;0.10;99.90;;;;;;4914643;29;20589;-85
2022/02/12 03:24:00;;;;;;;9.48;7.20;;;-0.40;99.90;;;;;;4899952;29;20283;-84
2022/02/12 03:26:26;;;;;;;8.07;7.03;;;-0.60;99.90;;;;;;4912336;29;20258;-84
2022/02/12 03:28:51;;;;;;;9.50;5.57;;;-0.70;99.90;;;;;;4917809;29;20259;-85
2022/02/12 03:31:17;;;;;;;6.90;6.00;;;-0.60;99.90;;;;;;4911098;29;20572;-84
2022/02/12 03:33:43;;;;;;;10.07;6.43;;;-0.50;99.90;;;;;;4917740;29;20202;-84
2022/02/12 03:36:08;;;;;;;7.57;6.83;;;-0.60;99.90;;;;;;4904566;29;20255;-85
2022/02/12 03:38:36;;;;;;;10.43;6.60;;;-0.50;99.90;;;;;;4916729;29;20460;-83
2022/02/12 03:41:04;;;;;;;11.93;6.25;;;-0.80;99.90;;;;;;4913143;29;20270;-83
2022/02/12 03:43:35;;;;;;;11.73;7.25;;;-0.70;99.90;;;;;;4920442;29;20192;-84
2022/02/12 03:46:02;;;;;;;13.45;7.20;;;-0.50;99.90;;;;;;4909671;29;20203;-83
2022/02/12 03:48:28;;;;;;;12.25;6.00;;;-0.40;99.90;;;;;;4916513;29;20192;-84
2022/02/12 03:50:55;;;;;;;10.07;5.03;;;;;;;;;;4915565;29;20202;-85
2022/02/12 03:53:21;;;;;;;12.27;6.00;;;-0.40;99.90;;;;;;4922286;29;20567;-85
2022/02/12 03:55:47;;;;;;;9.38;5.97;;;-0.50;99.90;;;;;;4905769;29;20216;-85
2022/02/12 03:58:15;;;;;;;13.23;6.57;;;-0.50;99.90;;;;;;4919580;29;20279;-82
2022/02/12 04:00:42;;;;;;;9.52;5.78;;;-0.40;99.90;;;;;;4915606;29;20436;-84
2022/02/12 04:03:07;;;;;;;8.43;6.78;;;-0.30;99.90;;;;;;4930470;29;20269;-85
2022/02/12 04:05:34;;;;;;;14.27;6.37;;;-0.50;99.90;;;;;;4910668;29;20777;-85
2022/02/12 04:08:00;;;;;;;12.65;6.18;;;-0.50;99.90;;;;;;4930302;29;20223;-85
2022/02/12 04:10:26;;;;;;;7.80;6.07;;;-0.60;99.90;;;;;;4910523;29;20235;-83
2022/02/12 04:12:52;;;;;;;10.17;6.70;;;-0.60;99.90;;;;;;4915279;29;20227;-83
2022/02/12 04:15:18;;;;;;;7.45;6.47;;;-0.60;99.90;;;;;;4912814;29;20455;-83
2022/02/12 04:17:44;;;;;;;7.40;6.65;;;-0.40;99.90;;;;;;4906014;29;20219;-83
2022/02/12 04:20:12;;;;;;;11.60;6.43;;;-0.60;99.90;;;;;;4924864;29;20238;-83
2022/02/12 04:22:39;;;;;;;13.57;6.28;;;-0.70;99.90;;;;;;4911544;29;20420;-84
2022/02/12 04:25:08;;;;;;;14.85;7.03;;;-0.40;99.90;;;;;;4928127;29;20199;-84
2022/02/12 04:27:34;;;;;;;8.63;5.80;;;-0.50;99.90;;;;;;4911973;29;20243;-86
2022/02/12 04:30:00;;;;;;;8.65;6.18;;;-0.70;99.90;;;;;;4928290;29;20571;-84
2022/02/12 04:32:26;;;;;;;11.27;6.70;;;-0.60;99.90;;;;;;4894593;29;20271;-83
2022/02/12 04:34:53;;;;;;;11.03;6.70;;;-0.70;99.90;;;;;;4923023;29;20321;-85
2022/02/12 04:37:20;;;;;;;11.20;6.72;;;-0.60;99.90;;;;;;4894630;29;20432;-84
2022/02/12 04:39:46;;;;;;;22.63;7.00;;;-0.60;99.90;;;;;;4921391;29;20196;-83
2022/02/12 04:42:12;;;;;;;10.47;6.60;;;-0.60;99.90;;;;;;4911154;29;20188;-83
2022/02/12 04:44:40;;;;;;;14.90;7.30;;;-0.40;99.90;;;;;;4919751;29;20576;-83
2022/02/12 04:47:07;;;;;;;13.32;6.60;;;-0.50;99.90;;;;;;4911778;29;20499;-83
2022/02/12 04:49:36;;;;;;;10.85;7.05;;;-0.50;99.90;;;;;;4904058;29;20220;-85
2022/02/12 04:52:03;;;;;;;8.93;6.72;;;-0.60;99.90;;;;;;4916001;29;20191;-84
2022/02/12 04:54:30;;;;;;;10.88;5.57;;;-0.50;99.90;;;;;;4904859;29;20198;-84
2022/02/12 04:56:56;;;;;;;6.80;5.55;;;-0.50;99.90;;;;;;4899872;29;20242;-84
2022/02/12 04:59:21;;;;;;;11.03;7.10;;;-0.40;99.90;;;;;;4927124;29;20199;-82
2022/02/12 05:01:50;;;;;;;10.90;7.90;;;-0.60;99.90;;;;;;4916699;29;20442;-84
2022/02/12 05:04:16;;;;;;;15.65;6.93;;;-0.60;99.90;;;;;;4918266;29;20191;-85
2022/02/12 05:06:42;;;;;;;16.88;7.55;;;-0.90;99.90;;;;;;4900823;29;20188;-83
2022/02/12 05:09:08;;;;;;;7.57;5.80;;;-0.80;99.90;;;;;;4248698;29;10021443;-84
2022/02/12 05:11:33;;;;;;;13.77;6.47;;;-0.80;99.90;;;;;;4907922;29;20186;-84
2022/02/12 05:13:59;;;;;;;23.03;7.50;;;-0.70;99.90;;;;;;4910235;29;20844;-83
2022/02/12 05:16:25;;;;;;;11.50;6.93;;;-0.60;99.90;;;;;;4910544;29;20214;-84
2022/02/12 05:18:51;;;;;;;19.80;7.37;;;-0.60;99.90;;;;;;4909485;29;20202;-82
2022/02/12 05:21:16;;;;;;;8.90;6.07;;;-0.60;99.90;;;;;;4903259;29;20232;-83
2022/02/12 05:23:44;;;;;;;13.97;7.10;;;-0.70;99.90;;;;;;4892772;29;20672;-83
2022/02/12 05:26:10;;;;;;;16.20;7.35;;;-0.80;99.90;;;;;;4897111;29;20579;-85
2022/02/12 05:28:36;;;;;;;7.73;5.73;;;-0.80;99.90;;;;;;4886050;29;20197;-83
2022/02/12 05:31:01;;;;;;;8.10;6.83;;;-0.80;99.90;;;;;;4886732;29;20449;-85
2022/02/12 05:33:27;;;;;;;14.77;8.20;;;-0.70;99.90;;;;;;4882299;29;20197;-84
2022/02/12 05:35:53;;;;;;;10.87;7.00;;;-0.90;99.90;;;;;;4881537;29;20233;-84
2022/02/12 05:38:18;;;;;;;10.40;6.67;;;-1.00;99.90;;;;;;4887902;29;20677;-83
2022/02/12 05:40:44;;;;;;;6.57;5.90;;;-1.00;99.90;;;;;;4885028;29;20205;-84
2022/02/12 05:43:10;;;;;;;10.73;6.20;;;-0.90;99.90;;;;;;4884688;29;20200;-84
2022/02/12 05:45:36;;;;;;;12.00;8.00;;;-0.90;99.90;;;;;;4545106;29;10000657;-84
2022/02/12 05:48:02;;;;;;;7.70;6.15;;;-1.00;99.90;;;;;;4862200;29;20254;-85
2022/02/12 05:50:29;;;;;;;11.33;6.80;;;-0.80;99.90;;;;;;4905711;29;20222;-85
2022/02/12 05:52:56;;;;;;;16.38;7.57;;;-0.80;99.90;;;;;;4893493;29;20578;-84
2022/02/12 05:55:22;;;;;;;12.00;7.47;;;-0.90;99.90;;;;;;4896374;29;20228;-85
2022/02/12 05:57:48;;;;;;;12.00;8.40;;;-0.90;99.90;;;;;;4895255;29;20596;-82
2022/02/12 06:00:14;;;;;;;10.40;7.70;;;-0.80;99.90;;;;;;4892269;29;20204;-84
2022/02/12 06:02:40;;;;;;;15.07;8.20;;;-0.80;99.90;;;;;;4898905;29;20181;-85
2022/02/12 06:05:06;;;;;;;17.43;8.20;;;-0.80;99.90;;;;;;4907996;29;20218;-84
2022/02/12 06:07:31;;;;;;;16.90;7.18;;;-0.70;99.90;;;;;;4879233;29;20551;-86
2022/02/12 06:09:57;;;;;;;8.57;6.70;;;-0.80;99.90;;;;;;4896127;29;20195;-84
2022/02/12 06:12:22;;;;;;;15.30;7.10;;;-0.90;99.90;;;;;;4914347;29;20172;-84
2022/02/12 06:14:48;;;;;;;11.20;7.10;;;-0.90;99.90;;;;;;4874027;29;20308;-84
2022/02/12 06:17:14;;;;;;;8.27;6.63;;;-0.80;99.90;;;;;;4888025;29;20181;-82
2022/02/12 06:19:39;;;;;;;12.20;7.10;;;-0.90;99.90;;;;;;4894907;29;20308;-84
2022/02/12 06:22:05;;;;;;;10.33;7.07;;;-0.70;99.90;;;;;;4919347;29;20235;-83
2022/02/12 06:24:31;;;;;;;12.10;7.50;;;-0.70;99.90;;;;;;4914622;29;20192;-83
2022/02/12 06:26:57;;;;;;;10.40;6.13;;;-0.70;99.90;;;;;;4930416;29;20451;-83
2022/02/12 06:29:24;;;;;;;16.42;6.93;;;-0.90;99.90;;;;;;4924211;29;20195;-83
2022/02/12 06:31:49;;;;;;;15.82;7.43;;;-0.80;99.90;;;;;;4906751;29;20283;-85
2022/02/12 06:34:22;;;;;;;13.70;7.60;;;-0.70;99.90;;;;;;4913708;29;20650;-84
2022/02/12 06:36:48;;;;;;;16.30;8.20;;;-0.70;99.90;;;;;;4941118;23;20234;-91
2022/02/12 06:39:13;;;;;;;7.47;6.80;;;;;;;;;;4918408;29;20599;-93
2022/02/12 06:41:39;;;;;;;15.53;7.90;;;-0.70;99.90;;;;;;4907509;29;20207;-90
2022/02/12 06:44:05;;;;;;;10.30;6.77;;;-0.80;99.90;;;;;;4904863;29;20459;-90
2022/02/12 06:46:36;;;;;;;15.93;5.87;;;-0.90;99.90;;;;;;4906936;29;20643;-91
2022/02/12 06:49:01;;;;;;;11.75;6.60;;;-0.60;99.90;;;;;;4927015;29;20224;-90
2022/02/12 06:51:28;;;;;;;12.23;7.70;;;-0.70;99.90;;;;;;4907914;29;20228;-91
2022/02/12 06:53:54;;;;;;;11.02;7.10;;;-0.90;99.90;;;;;;4901318;29;20196;-91
2022/02/12 06:56:19;;;;;;;20.07;7.37;;;-0.80;99.90;;;;;;4906784;29;20239;-90
2022/02/12 06:58:45;;;;;;;16.53;8.33;;;-0.70;99.90;;;;;;4907521;29;20192;-91
2022/02/12 07:01:11;;;;;;;15.47;7.97;;;-0.70;99.90;;;;;;4905795;29;20251;-91
2022/02/12 07:03:36;;;;;;;8.17;6.70;;;-0.60;99.90;;;;;;4907809;29;20188;-89
2022/02/12 07:06:02;;;;;;;19.47;7.77;;;-0.50;99.90;;;;;;4906881;29;20675;-91
2022/02/12 07:08:28;;;;;;;9.00;6.50;;;-0.50;99.90;;;;;;4898766;29;20215;-91
2022/02/12 07:10:54;;;;;;;13.93;6.10;;;-0.60;99.90;;;;;;4915840;29;20271;-90
2022/02/12 07:13:20;;;;;;;8.50;6.37;;;-0.10;99.90;;;;;;4913508;29;20247;-90
2022/02/12 07:15:46;;;;;;;11.00;6.20;;;-0.40;99.90;;;;;;4899623;29;20559;-91
2022/02/12 07:18:14;;;;;;;10.70;6.60;;;-0.50;99.90;;;;;;4902180;29;20282;-91
2022/02/12 07:20:40;;;;;;;19.25;7.75;;;-0.30;99.90;;;;;;4928013;29;20187;-91
2022/02/12 07:23:05;;;;;;;19.53;7.43;;;-0.20;99.90;;;;;;4914639;29;20669;-89
2022/02/12 07:25:31;;;;;;;7.40;5.63;;;-0.20;99.90;;;;;;4913838;29;20198;-91
2022/02/12 07:27:57;;;;;;;7.83;5.90;;;-0.20;99.90;;;;;;4918578;29;20215;-91
2022/02/12 07:30:24;;;;;;;8.52;6.03;;;0.00;99.90;;;;;;4930879;29;20243;-91
2022/02/12 07:32:50;;;;;;;10.45;6.05;;;0.10;99.90;;;;;;4932708;29;20246;-89
2022/02/12 07:35:16;;;;;;;7.85;6.78;;;0.00;99.90;;;;;;4927048;29;20250;-93
2022/02/12 07:37:47;;;;;;;6.68;6.03;;;0.10;99.90;;;;;;4913126;29;20310;-89
2022/02/12 07:40:14;;;;;;;9.30;7.00;;;0.20;99.90;;;;;;4918534;29;20721;-90
2022/02/12 07:42:40;;;;;;;11.05;6.85;;;0.70;99.90;;;;;;4916489;29;20223;-90
2022/02/12 07:45:07;;;;;;;10.23;6.27;;;0.40;99.90;;;;;;4937778;29;20171;-90
2022/02/12 07:47:35;;;;;;;8.50;5.18;;;0.60;99.90;;;;;;4929926;29;20431;-92
2022/02/12 07:50:00;;;;;;;6.78;5.90;;;0.70;99.90;;;;;;4915993;29;20302;-90
2022/02/12 07:52:27;;;;;;;5.93;5.40;;;0.60;99.90;;;;;;4904093;29;20183;-92
2022/02/12 07:54:54;;;;;;;14.50;5.75;;;0.70;99.90;;;;;;4933745;29;20617;-87
2022/02/12 07:57:20;;;;;;;6.97;6.28;;;0.70;99.90;;;;;;4928358;29;20212;-93
2022/02/12 07:59:46;;;;;;;8.80;5.97;;;0.90;99.90;;;;;;4908875;29;20203;-93
2022/02/12 08:02:12;;;;;;;9.30;6.67;;;;;;;;;;4914304;29;20302;-92
2022/02/12 08:04:38;;;;;;;10.18;6.20;;;0.90;99.90;;;;;;4916495;29;20419;-90
2022/02/12 08:09:48;;;;;;;8.05;6.50;;;0.40;99.90;;;;;;4905842;29;20718;-91
2022/02/12 08:12:13;;;;;;;7.90;6.30;;;1.30;99.90;;;;;;4914046;29;20196;-87
2022/02/12 08:14:45;;;;;;;7.07;6.40;;;1.30;99.90;;;;;;4901493;29;20255;-90
2022/02/12 08:17:12;;;;;;;13.82;6.60;;;1.80;99.90;;;;;;4911471;29;20206;-91
2022/02/12 08:19:40;;;;;;;6.00;5.50;;;1.10;99.90;;;;;;4907431;29;20201;-91
2022/02/12 08:22:06;;;;;;;9.52;6.03;;;2.70;99.90;;;;;;4913198;29;20207;-93
2022/02/12 08:24:32;;;;;;;6.57;5.77;;;;;;;;;;4909910;29;20196;-90
2022/02/12 08:27:00;;;;;;;5.88;3.42;;;2.00;99.90;;;;;;4917833;29;20438;-91
2022/02/12 08:29:28;;;;;;;6.18;3.63;;;2.00;99.90;;;;;;4935611;29;20242;-91
2022/02/12 08:31:56;;;;;;;5.30;3.20;;;2.10;99.90;;;;;;4908980;29;20244;-90
2022/02/12 08:34:23;;;;;;;16.08;4.97;;;2.30;99.90;;;;;;4905876;29;20732;-90
2022/02/12 08:36:50;;;;;;;15.35;3.70;;;1.90;99.90;;;;;;4928393;29;20306;-90
2022/02/12 08:39:16;;;;;;;13.88;4.22;;;2.30;99.90;;;;;;4913665;29;20188;-89
2022/02/12 08:41:42;;;;;;;4.93;3.40;;;2.80;99.90;;;;;;4919401;29;20196;-91
2022/02/12 08:44:08;;;;;;;4.00;2.97;;;2.80;99.90;;;;;;4904938;29;20187;-91
2022/02/12 08:46:33;;;;;;;4.00;2.93;;;2.90;99.90;;;;;;4903064;29;20436;-89
2022/02/12 08:48:59;;;;;;;6.33;3.70;;;;;;;;;;4906799;29;20188;-91
2022/02/12 08:51:26;;;;;;;6.22;3.20;;;3.00;99.90;;;;;;4920359;29;20201;-91
2022/02/12 08:53:52;;;;;;;5.78;3.30;;;4.90;99.90;;;;;;4886514;29;20212;-91
2022/02/12 08:56:18;;;;;;;9.20;3.50;;;3.50;99.90;;;;;;4218028;29;10000650;-91
2022/02/12 08:58:43;;;;;;;6.43;4.33;;;3.80;99.90;;;;;;4886388;29;20228;-90
2022/02/12 09:01:09;;;;;;;8.43;3.20;;;3.10;99.90;;;;;;4898511;29;20448;-90
2022/02/12 09:03:35;;;;;;;6.13;2.83;;;3.80;99.90;;;;;;4892692;29;20188;-89
2022/02/12 09:06:41;;;;;;;8.48;2.85;;;4.30;99.90;;;;;;4911857;29;20564;-90
2022/02/12 09:10:06;;;;;;;5.97;2.55;;;4.30;99.90;;;;;;4898986;29;20274;-89
2022/02/12 09:13:32;;;;;;;6.07;3.05;;;4.10;99.90;;;;;;4896250;29;20197;-91
2022/02/12 09:16:58;;;;;;;5.13;2.92;;;4.40;99.90;;;;;;4906677;29;20271;-90
2022/02/12 09:20:24;;;;;;;6.82;3.50;;;4.50;99.90;;;;;;4896399;29;20208;-89
2022/02/12 09:23:09;;;;;;;4.93;2.85;;;4.90;99.90;;;;;;4894568;29;20943;-89
2022/02/12 09:25:35;;;;;;;4.13;3.73;;;5.10;99.90;;;;;;4907452;29;20196;-92
2022/02/12 09:28:02;;;;;;;3.17;2.70;;;5.30;99.90;;;;;;4910971;29;20487;-91
2022/02/12 09:30:27;;;;;;;6.00;2.95;;;5.80;99.90;;;;;;4889230;29;20271;-90
2022/02/12 09:32:53;;;;;;;7.87;2.73;;;5.70;99.90;;;;;;4894694;29;20203;-90
2022/02/12 09:35:20;;;;;;;4.07;3.30;;;5.90;99.90;;;;;;4908457;29;20439;-89
2022/02/12 09:37:45;;;;;;;10.30;3.30;;;6.30;99.90;;;;;;4904059;29;20853;-91
2022/02/12 09:40:13;;;;;;;3.93;3.50;;;6.70;99.90;;;;;;4916787;29;20427;-93
2022/02/12 09:42:39;;;;;;;10.02;3.17;;;6.50;99.90;;;;;;4920912;29;20212;-90
2022/02/12 09:45:07;;;;;;;10.93;3.33;;;6.90;99.90;;;;;;4907828;29;20377;-90
2022/02/12 09:47:48;;;;;;;6.80;2.80;;;7.00;99.90;;;;;;4906692;29;20219;-88
2022/02/12 09:50:17;;;;;;;11.90;3.33;;;7.20;99.90;;;;;;4906019;29;20204;-87
2022/02/12 09:52:50;;;;;;;6.55;3.10;;;6.90;99.90;;;;;;4891480;29;20290;-88
2022/02/12 09:55:16;;;;;;;10.70;4.23;;;7.60;99.90;;;;;;4896130;29;20393;-90
2022/02/12 09:57:42;;;;;;;5.90;3.20;;;7.70;99.90;;;;;;4895217;29;20506;-90
2022/02/12 10:00:47;;;;;;;8.07;3.40;;;7.90;99.90;;;;;;4895023;29;20448;-90
2022/02/12 10:04:13;;;;;;;7.03;3.70;;;8.60;99.90;;;;;;4907767;29;20863;-90
2022/02/12 10:07:41;;;;;;;6.00;3.17;;;8.40;99.90;;;;;;4924248;29;20436;-89
2022/02/12 10:11:06;;;;;;;7.60;4.07;;;8.70;99.10;;;;;;4924528;29;20517;-89
2022/02/12 10:14:35;;;;;;;7.20;3.13;;;8.90;96.30;;;;;;4921651;29;20454;-88
2022/02/12 10:18:00;;;;;;;7.80;3.27;;;9.50;92.20;;;;;;4922865;29;20431;-90
2022/02/12 10:21:25;;;;;;;6.18;3.75;;;9.50;89.00;;;;;;4928427;29;20428;-91
2022/02/12 10:25:05;;;;;;;4.53;3.10;;;11.00;82.20;;;;;;4915928;29;20197;-90
2022/02/12 10:28:24;;;;;;;3.20;2.90;;;10.70;72.80;;;;;;4919459;29;20440;-92
2022/02/12 10:30:49;;;;;;;9.10;3.40;;;11.20;67.00;;;;;;4881608;29;20592;-91
2022/02/12 10:33:58;;;;;;;11.43;3.53;;;13.10;60.20;;;;;;4896914;29;20423;-92
2022/02/12 10:37:23;;;;;;;4.13;2.63;;;11.10;59.80;;;;;;4913379;29;20238;-91
2022/02/12 10:40:49;;;;;;;5.73;2.90;;;14.10;56.80;;;;;;4924863;29;20841;-90
2022/02/12 10:44:14;;;;;;;5.23;2.40;;;13.00;58.60;;;;;;4906580;29;21070;-89
2022/02/12 10:47:40;;;;;;;7.10;2.43;;;10.70;57.80;;;;;;4924926;29;20451;-91
2022/02/12 10:51:05;;;;;;;6.73;2.53;;;13.20;62.70;;;;;;4923398;29;21036;-89
2022/02/12 10:54:02;;;;;;;4.70;2.50;;;10.40;55.40;;;;;;4920015;29;20448;-91
2022/02/12 10:57:05;;;;;;;4.00;3.57;;;13.60;58.10;;;;;;4929562;29;20479;-89
2022/02/12 11:00:42;;;;;;;5.10;2.33;;;10.60;58.90;;;;;;4913365;29;20441;-93
2022/02/12 11:04:10;;;;;;;4.33;2.93;;;11.20;55.20;;;;;;4909477;29;20528;-93
2022/02/12 11:07:36;;;;;;;2.57;2.37;;;10.90;52.00;;;;;;4911941;29;20432;-92
2022/02/12 11:11:10;;;;;;;4.20;3.50;;;11.90;50.90;;;;;;4912844;29;20472;-93
2022/02/12 11:14:36;;;;;;;5.30;2.80;;;13.60;54.30;;;;;;4912138;29;20440;-92
2022/02/12 11:18:01;;;;;;;3.37;2.87;;;12.40;49.30;;;;;;4909666;29;20447;-91
2022/02/12 11:23:34;;;;;;;6.13;2.60;;;;;;;;;;4913955;29;21032;-84
2022/02/12 11:26:03;;;;;;;4.23;2.70;;;12.90;65.40;;;;;;4897297;29;20475;-83
2022/02/12 11:28:33;;;;;;;4.30;3.37;;;13.40;62.90;;;;;;4877726;29;20545;-83
2022/02/12 11:31:15;;;;;;;7.93;2.90;;;;;;;;;;4878378;29;20425;-86
2022/02/12 11:34:01;;;;;;;4.03;3.23;;;13.90;43.80;;;;;;4895651;29;20531;-82
2022/02/12 11:36:27;;;;;;;4.97;2.97;;;13.70;44.00;;;;;;4897109;29;20469;-82
2022/02/12 11:39:04;;;;;;;4.40;3.37;;;;;;;;;;4898051;29;20436;-87
2022/02/12 11:41:30;;;;;;;7.77;3.97;;;14.50;39.90;;;;;;4895339;29;20449;-86
2022/02/12 11:43:56;;;;;;;3.30;2.93;;;14.50;39.10;;;;;;4879824;29;20493;-84
2022/02/12 11:46:40;;;;;;;6.30;3.50;;;13.40;37.70;;;;;;4879684;29;20445;-80
2022/02/12 11:49:37;;;;;;;5.60;3.03;;;13.80;37.90;;;;;;4909798;29;20494;-84
2022/02/12 11:52:07;;;;;;;6.07;3.10;;;13.60;36.80;;;;;;4883124;29;20839;-85
2022/02/12 11:55:12;;;;;;;6.97;2.50;;;12.60;37.20;;;;;;4880948;29;20436;-84
2022/02/12 11:57:38;;;;;;;4.80;2.27;;;12.90;39.50;;;;;;4893488;29;20436;-82
2022/02/12 12:00:04;;;;;;;3.40;2.37;;;13.10;37.60;;;;;;4884780;29;21400;-84
2022/02/12 12:02:41;;;;;;;4.47;3.00;;;13.60;37.40;;;;;;4890216;29;21058;-83
2022/02/12 12:05:15;;;;;;;2.87;2.47;;;13.60;37.20;;;;;;4884542;29;20212;-84
2022/02/12 12:08:06;;;;;;;4.97;2.23;;;14.20;37.20;;;;;;4908641;29;20490;-84
2022/02/12 12:10:37;;;;;;;4.77;2.17;;;15.70;37.60;;;;;;4917580;29;20429;-86
2022/02/12 12:13:15;;;;;;;3.13;2.00;;;14.00;36.10;;;;;;4889910;29;20492;-82
2022/02/12 12:16:10;;;;;;;2.97;2.00;;;13.20;37.00;;;;;;4560594;29;10000385;-82
2022/02/12 12:18:48;;;;;;;3.73;1.83;;;12.50;36.60;;;;;;4884791;29;20606;-83
2022/02/12 12:21:14;;;;;;;2.43;2.30;;;12.20;41.40;;;;;;4880782;29;20462;-82
2022/02/12 12:23:52;;;;;;;2.03;1.93;;;13.10;38.50;;;;;;4905080;29;20470;-83
2022/02/12 12:26:19;;;;;;;3.50;1.80;;;15.80;39.20;;;;;;4921736;29;20450;-82
2022/02/12 12:30:44;;;;;;;3.60;1.97;;;12.10;37.40;;;;;;4919121;29;20439;-84
2022/02/12 12:31:33;;;;;;;3.73;2.13;;;16.40;39.30;;;;;;4918784;29;20424;-81
2022/02/12 12:34:07;;;;;;;4.70;1.67;;;13.90;37.90;;;;;;4906085;29;20675;-83
2022/02/12 12:36:38;;;;;;;2.63;2.50;;;16.40;37.80;;;;;;4907874;29;20474;-82
2022/02/12 12:39:13;;;;;;;2.00;1.77;;;13.00;35.40;;;;;;4905288;29;20438;-82
2022/02/12 12:41:42;;;;;;;3.27;1.83;;;14.60;36.60;;;;;;4906006;29;20574;-84
2022/02/12 12:44:09;;;;;;;3.57;1.73;;;13.00;35.70;;;;;;4906119;29;20526;-84
2022/02/12 12:46:37;;;;;;;3.33;2.70;;;13.70;34.90;;;;;;4912180;29;20439;-83
2022/02/12 12:49:04;;;;;;;5.43;2.50;;;14.30;35.90;;;;;;4899725;29;20619;-84
2022/02/12 12:54:00;;;;;;;5.53;2.20;;;13.10;35.30;;;;;;4918140;29;20486;-84
2022/02/12 12:56:27;;;;;;;4.87;2.10;;;15.10;37.90;;;;;;4913105;29;20481;-84
2022/02/12 12:59:10;;;;;;;2.70;2.50;;;14.20;36.20;;;;;;4922073;29;20436;-84
2022/02/12 13:01:53;;;;;;;2.20;1.80;;;12.80;35.90;;;;;;4905919;29;20432;-86
2022/02/12 13:04:19;;;;;;;2.83;2.67;;;13.10;36.40;;;;;;4924837;29;20701;-85
2022/02/12 13:06:55;;;;;;;5.40;2.33;;;11.90;36.80;;;;;;4924713;29;21265;-84
2022/02/12 13:09:22;;;;;;;2.27;2.07;;;12.80;37.70;;;;;;4902793;29;20490;-84
2022/02/12 13:11:48;;;;;;;3.83;2.20;;;13.00;36.60;;;;;;4906133;29;20507;-83
2022/02/12 13:14:14;;;;;;;3.90;2.60;;;13.80;38.20;;;;;;4926288;29;20427;-85
2022/02/12 13:16:48;;;;;;;1.80;1.60;;;12.50;36.90;;;;;;4927900;29;20223;-84
2022/02/12 13:19:16;;;;;;;3.60;2.50;;;12.70;37.00;;;;;;4926755;29;20452;-85
2022/02/12 13:21:57;;;;;;;1.67;1.67;;;12.40;37.20;;;;;;4909402;29;20754;-83
2022/02/12 13:24:32;;;;;;;4.73;2.17;;;12.70;37.30;;;;;;4912163;29;20859;-83
2022/02/12 13:26:58;;;;;;;2.80;2.60;;;13.50;37.30;;;;;;4926244;29;20443;-83
2022/02/12 13:29:26;;;;;;;5.00;2.40;;;12.90;37.70;;;;;;4934288;29;20487;-83